sensor_id;sensor_type;location;lat;lon;timestamp;pressure;altitude;pressure_sealevel;temperature;humidity
70011;BME280;59543;37.950;-122.338;2023-07-08T00:00:54;100984.00;;;18.00;66.21
70011;BME280;59543;37.950;-122.338;2023-07-08T00:03:21;100966.47;;;17.88;67.47
70011;BME280;59543;37.950;-122.338;2023-07-08T00:05:49;100978.00;;;18.26;65.80
70011;BME280;59543;37.950;-122.338;2023-07-08T00:08:19;100969.13;;;18.18;66.41
70011;BME280;59543;37.950;-122.338;2023-07-08T00:10:46;100985.31;;;18.26;66.54
70011;BME280;59543;37.950;-122.338;2023-07-08T00:13:12;100968.56;;;18.08;66.38
70011;BME280;59543;37.950;-122.338;2023-07-08T00:15:40;100962.84;;;18.17;66.71
70011;BME280;59543;37.950;-122.338;2023-07-08T00:18:12;100950.00;;;18.11;66.52
70011;BME280;59543;37.950;-122.338;2023-07-08T00:20:49;100960.94;;;17.96;66.76
70011;BME280;59543;37.950;-122.338;2023-07-08T00:23:16;100971.16;;;17.94;67.03
70011;BME280;59543;37.950;-122.338;2023-07-08T00:25:47;100961.03;;;17.88;66.84
70011;BME280;59543;37.950;-122.338;2023-07-08T00:28:21;100958.25;;;17.52;68.69
70011;BME280;59543;37.950;-122.338;2023-07-08T00:30:48;100956.59;;;17.36;69.33
70011;BME280;59543;37.950;-122.338;2023-07-08T00:33:14;100957.34;;;17.15;70.58
70011;BME280;59543;37.950;-122.338;2023-07-08T00:35:43;100964.00;;;17.12;70.12
70011;BME280;59543;37.950;-122.338;2023-07-08T00:38:28;100948.91;;;17.25;68.89
70011;BME280;59543;37.950;-122.338;2023-07-08T00:43:37;100945.59;;;17.14;69.41
70011;BME280;59543;37.950;-122.338;2023-07-08T00:49:26;100945.22;;;17.18;69.95
70011;BME280;59543;37.950;-122.338;2023-07-08T00:51:55;100943.25;;;16.97;70.78
70011;BME280;59543;37.950;-122.338;2023-07-08T00:54:21;100938.00;;;16.95;70.72
70011;BME280;59543;37.950;-122.338;2023-07-08T00:56:56;100942.34;;;17.19;70.60
70011;BME280;59543;37.950;-122.338;2023-07-08T00:59:36;100953.09;;;16.83;71.58
70011;BME280;59543;37.950;-122.338;2023-07-08T01:02:07;100956.75;;;17.05;70.74
70011;BME280;59543;37.950;-122.338;2023-07-08T01:04:49;100936.88;;;16.89;72.18
70011;BME280;59543;37.950;-122.338;2023-07-08T01:07:17;100937.94;;;17.03;71.70
70011;BME280;59543;37.950;-122.338;2023-07-08T01:09:50;100950.06;;;16.78;71.40
70011;BME280;59543;37.950;-122.338;2023-07-08T01:12:24;100938.56;;;16.90;71.40
70011;BME280;59543;37.950;-122.338;2023-07-08T01:14:53;100936.59;;;16.84;71.25
70011;BME280;59543;37.950;-122.338;2023-07-08T01:17:22;100933.78;;;16.78;72.08
70011;BME280;59543;37.950;-122.338;2023-07-08T01:19:49;100925.88;;;16.68;71.50
70011;BME280;59543;37.950;-122.338;2023-07-08T01:22:16;100923.56;;;16.80;71.20
70011;BME280;59543;37.950;-122.338;2023-07-08T01:24:44;100925.50;;;16.71;72.01
70011;BME280;59543;37.950;-122.338;2023-07-08T01:27:13;100918.84;;;16.74;72.11
70011;BME280;59543;37.950;-122.338;2023-07-08T01:29:40;100916.28;;;16.95;70.70
70011;BME280;59543;37.950;-122.338;2023-07-08T01:32:11;100927.13;;;16.80;71.05
70011;BME280;59543;37.950;-122.338;2023-07-08T01:34:39;100921.84;;;16.64;71.89
70011;BME280;59543;37.950;-122.338;2023-07-08T01:37:09;100926.66;;;16.77;71.78
70011;BME280;59543;37.950;-122.338;2023-07-08T01:39:37;100919.38;;;16.69;71.94
70011;BME280;59543;37.950;-122.338;2023-07-08T01:42:03;100923.63;;;16.72;72.13
70011;BME280;59543;37.950;-122.338;2023-07-08T01:44:35;100923.44;;;16.73;71.97
70011;BME280;59543;37.950;-122.338;2023-07-08T01:47:22;100928.34;;;16.78;72.12
70011;BME280;59543;37.950;-122.338;2023-07-08T01:49:48;100929.19;;;16.78;71.65
70011;BME280;59543;37.950;-122.338;2023-07-08T01:52:16;100931.66;;;16.88;71.54
70011;BME280;59543;37.950;-122.338;2023-07-08T01:54:43;100931.94;;;16.55;72.80
70011;BME280;59543;37.950;-122.338;2023-07-08T01:57:10;100939.44;;;16.91;72.13
70011;BME280;59543;37.950;-122.338;2023-07-08T01:59:36;100930.91;;;16.94;71.71
70011;BME280;59543;37.950;-122.338;2023-07-08T02:02:02;100941.03;;;17.00;71.59
70011;BME280;59543;37.950;-122.338;2023-07-08T02:04:29;100939.81;;;16.88;72.08
70011;BME280;59543;37.950;-122.338;2023-07-08T02:06:58;100931.91;;;17.52;69.95
70011;BME280;59543;37.950;-122.338;2023-07-08T02:09:25;100933.03;;;17.43;69.38
70011;BME280;59543;37.950;-122.338;2023-07-08T02:11:53;100932.38;;;17.41;69.31
70011;BME280;59543;37.950;-122.338;2023-07-08T02:14:19;100926.81;;;17.64;69.25
70011;BME280;59543;37.950;-122.338;2023-07-08T02:16:46;100926.75;;;17.43;69.56
70011;BME280;59543;37.950;-122.338;2023-07-08T02:19:12;100929.44;;;17.87;67.87
70011;BME280;59543;37.950;-122.338;2023-07-08T02:21:38;100922.66;;;17.83;68.21
70011;BME280;59543;37.950;-122.338;2023-07-08T02:24:05;100933.38;;;17.70;68.35
70011;BME280;59543;37.950;-122.338;2023-07-08T02:26:32;100929.94;;;17.46;68.91
70011;BME280;59543;37.950;-122.338;2023-07-08T02:28:58;100929.81;;;17.69;67.97
70011;BME280;59543;37.950;-122.338;2023-07-08T02:31:25;100932.94;;;17.51;69.12
70011;BME280;59543;37.950;-122.338;2023-07-08T02:33:52;100926.75;;;17.57;68.88
70011;BME280;59543;37.950;-122.338;2023-07-08T02:36:19;100932.47;;;17.48;69.19
70011;BME280;59543;37.950;-122.338;2023-07-08T02:38:45;100937.06;;;17.47;69.60
70011;BME280;59543;37.950;-122.338;2023-07-08T02:41:11;100916.88;;;17.56;69.15
70011;BME280;59543;37.950;-122.338;2023-07-08T02:43:38;100922.00;;;17.30;70.03
70011;BME280;59543;37.950;-122.338;2023-07-08T02:46:04;100926.88;;;17.20;70.76
70011;BME280;59543;37.950;-122.338;2023-07-08T02:48:31;100938.09;;;16.87;71.78
70011;BME280;59543;37.950;-122.338;2023-07-08T02:51:02;100925.44;;;16.79;72.50
70011;BME280;59543;37.950;-122.338;2023-07-08T02:53:29;100929.31;;;16.62;73.18
70011;BME280;59543;37.950;-122.338;2023-07-08T02:55:55;100918.84;;;16.36;74.07
70011;BME280;59543;37.950;-122.338;2023-07-08T02:58:21;100923.22;;;16.22;75.00
70011;BME280;59543;37.950;-122.338;2023-07-08T03:00:57;100932.28;;;16.06;75.92
70011;BME280;59543;37.950;-122.338;2023-07-08T03:03:29;100918.06;;;15.81;76.81
70011;BME280;59543;37.950;-122.338;2023-07-08T03:06:00;100918.78;;;15.36;78.84
70011;BME280;59543;37.950;-122.338;2023-07-08T03:08:28;100928.09;;;15.33;78.91
70011;BME280;59543;37.950;-122.338;2023-07-08T03:11:01;100928.16;;;15.17;79.22
70011;BME280;59543;37.950;-122.338;2023-07-08T03:13:29;100932.63;;;14.93;80.42
70011;BME280;59543;37.950;-122.338;2023-07-08T03:15:56;100935.03;;;14.72;81.72
70011;BME280;59543;37.950;-122.338;2023-07-08T03:18:23;100936.06;;;14.62;82.70
70011;BME280;59543;37.950;-122.338;2023-07-08T03:20:50;100933.53;;;14.69;82.40
70011;BME280;59543;37.950;-122.338;2023-07-08T03:23:16;100943.66;;;14.51;83.83
70011;BME280;59543;37.950;-122.338;2023-07-08T03:25:42;100939.06;;;14.35;84.38
70011;BME280;59543;37.950;-122.338;2023-07-08T03:28:08;100935.38;;;14.52;83.43
70011;BME280;59543;37.950;-122.338;2023-07-08T03:30:45;100933.31;;;14.46;83.33
70011;BME280;59543;37.950;-122.338;2023-07-08T03:33:12;100946.03;;;14.29;84.86
70011;BME280;59543;37.950;-122.338;2023-07-08T03:35:38;100948.19;;;14.09;85.62
70011;BME280;59543;37.950;-122.338;2023-07-08T03:38:05;100942.28;;;14.06;85.68
70011;BME280;59543;37.950;-122.338;2023-07-08T03:40:31;100948.00;;;13.94;86.25
70011;BME280;59543;37.950;-122.338;2023-07-08T03:42:58;100947.97;;;13.86;86.71
70011;BME280;59543;37.950;-122.338;2023-07-08T03:45:25;100943.41;;;13.87;86.84
70011;BME280;59543;37.950;-122.338;2023-07-08T03:47:52;100945.25;;;13.70;88.04
70011;BME280;59543;37.950;-122.338;2023-07-08T03:50:21;100936.78;;;13.65;88.76
70011;BME280;59543;37.950;-122.338;2023-07-08T03:52:49;100943.22;;;13.72;88.35
70011;BME280;59543;37.950;-122.338;2023-07-08T03:55:16;100950.81;;;13.77;88.09
70011;BME280;59543;37.950;-122.338;2023-07-08T03:57:43;100949.28;;;13.66;88.58
70011;BME280;59543;37.950;-122.338;2023-07-08T04:00:10;100945.06;;;13.63;88.87
70011;BME280;59543;37.950;-122.338;2023-07-08T04:02:42;100948.09;;;13.60;88.89
70011;BME280;59543;37.950;-122.338;2023-07-08T04:05:20;100954.47;;;13.59;89.27
70011;BME280;59543;37.950;-122.338;2023-07-08T04:07:47;100954.63;;;13.49;89.67
70011;BME280;59543;37.950;-122.338;2023-07-08T04:10:14;100968.63;;;13.45;90.17
70011;BME280;59543;37.950;-122.338;2023-07-08T04:12:41;100953.06;;;13.39;90.93
70011;BME280;59543;37.950;-122.338;2023-07-08T04:15:09;100961.00;;;13.40;91.24
70011;BME280;59543;37.950;-122.338;2023-07-08T04:17:40;100969.13;;;13.40;91.49
70011;BME280;59543;37.950;-122.338;2023-07-08T04:20:08;100958.59;;;13.29;92.36
70011;BME280;59543;37.950;-122.338;2023-07-08T04:22:37;100972.59;;;13.33;91.67
70011;BME280;59543;37.950;-122.338;2023-07-08T04:25:03;100976.69;;;13.37;91.20
70011;BME280;59543;37.950;-122.338;2023-07-08T04:27:30;100986.66;;;13.36;90.79
70011;BME280;59543;37.950;-122.338;2023-07-08T04:29:56;100987.31;;;13.30;90.85
70011;BME280;59543;37.950;-122.338;2023-07-08T04:32:23;100990.69;;;13.32;91.27
70011;BME280;59543;37.950;-122.338;2023-07-08T04:34:52;100999.69;;;13.15;92.16
70011;BME280;59543;37.950;-122.338;2023-07-08T04:37:18;100989.56;;;13.17;91.92
70011;BME280;59543;37.950;-122.338;2023-07-08T04:39:46;100997.81;;;13.15;92.16
70011;BME280;59543;37.950;-122.338;2023-07-08T04:42:14;100998.47;;;13.09;92.26
70011;BME280;59543;37.950;-122.338;2023-07-08T04:44:42;100992.03;;;13.28;91.05
70011;BME280;59543;37.950;-122.338;2023-07-08T04:47:09;100997.06;;;13.05;92.07
70011;BME280;59543;37.950;-122.338;2023-07-08T04:49:39;101001.38;;;13.16;91.59
70011;BME280;59543;37.950;-122.338;2023-07-08T04:52:09;100999.31;;;13.10;91.81
70011;BME280;59543;37.950;-122.338;2023-07-08T04:54:35;101007.63;;;13.16;91.89
70011;BME280;59543;37.950;-122.338;2023-07-08T04:57:02;101012.63;;;13.11;92.10
70011;BME280;59543;37.950;-122.338;2023-07-08T04:59:28;101022.41;;;13.04;92.55
70011;BME280;59543;37.950;-122.338;2023-07-08T05:01:54;101022.06;;;13.07;92.11
70011;BME280;59543;37.950;-122.338;2023-07-08T05:04:22;101021.63;;;13.12;91.99
70011;BME280;59543;37.950;-122.338;2023-07-08T05:06:49;101023.94;;;13.07;91.68
70011;BME280;59543;37.950;-122.338;2023-07-08T05:09:15;101022.53;;;13.02;91.90
70011;BME280;59543;37.950;-122.338;2023-07-08T05:11:41;101022.84;;;12.99;91.74
70011;BME280;59543;37.950;-122.338;2023-07-08T05:14:08;101029.78;;;13.02;92.32
70011;BME280;59543;37.950;-122.338;2023-07-08T05:16:35;101032.16;;;12.97;92.62
70011;BME280;59543;37.950;-122.338;2023-07-08T05:19:04;101031.13;;;12.98;92.18
70011;BME280;59543;37.950;-122.338;2023-07-08T05:21:30;101027.13;;;12.84;92.78
70011;BME280;59543;37.950;-122.338;2023-07-08T05:24:01;101027.84;;;12.86;92.92
70011;BME280;59543;37.950;-122.338;2023-07-08T05:26:27;101027.84;;;12.86;92.89
70011;BME280;59543;37.950;-122.338;2023-07-08T05:28:53;101031.75;;;12.92;92.94
70011;BME280;59543;37.950;-122.338;2023-07-08T05:31:20;101034.47;;;12.92;92.55
70011;BME280;59543;37.950;-122.338;2023-07-08T05:33:46;101031.75;;;12.92;92.15
70011;BME280;59543;37.950;-122.338;2023-07-08T05:36:12;101035.22;;;12.84;92.93
70011;BME280;59543;37.950;-122.338;2023-07-08T05:38:38;101027.84;;;12.86;93.11
70011;BME280;59543;37.950;-122.338;2023-07-08T05:41:04;101037.09;;;12.84;93.34
70011;BME280;59543;37.950;-122.338;2023-07-08T05:43:32;101033.09;;;12.88;93.17
70011;BME280;59543;37.950;-122.338;2023-07-08T05:46:01;101033.84;;;12.80;93.56
70011;BME280;59543;37.950;-122.338;2023-07-08T05:48:28;101027.84;;;12.86;93.23
70011;BME280;59543;37.950;-122.338;2023-07-08T05:50:55;101034.16;;;12.77;93.49
70011;BME280;59543;37.950;-122.338;2023-07-08T05:53:22;101033.78;;;12.72;94.39
70011;BME280;59543;37.950;-122.338;2023-07-08T05:55:49;101036.16;;;12.75;93.63
70011;BME280;59543;37.950;-122.338;2023-07-08T05:58:16;101023.28;;;12.69;93.71
70011;BME280;59543;37.950;-122.338;2023-07-08T06:00:43;101027.72;;;12.70;93.83
70011;BME280;59543;37.950;-122.338;2023-07-08T06:03:09;101029.09;;;12.74;93.77
70011;BME280;59543;37.950;-122.338;2023-07-08T06:05:39;101018.81;;;12.77;93.08
70011;BME280;59543;37.950;-122.338;2023-07-08T06:08:06;101013.09;;;12.80;92.69
70011;BME280;59543;37.950;-122.338;2023-07-08T06:10:33;101017.38;;;12.65;93.68
70011;BME280;59543;37.950;-122.338;2023-07-08T06:13:00;101015.19;;;12.69;93.88
70011;BME280;59543;37.950;-122.338;2023-07-08T06:15:28;101010.66;;;12.69;93.76
70011;BME280;59543;37.950;-122.338;2023-07-08T06:17:55;101021.59;;;12.68;93.70
70011;BME280;59543;37.950;-122.338;2023-07-08T06:20:24;101025.31;;;12.67;93.63
70011;BME280;59543;37.950;-122.338;2023-07-08T06:22:50;101021.22;;;12.63;93.29
70011;BME280;59543;37.950;-122.338;2023-07-08T06:25:16;101022.22;;;12.62;93.64
70011;BME280;59543;37.950;-122.338;2023-07-08T06:27:42;101023.38;;;12.59;93.56
70011;BME280;59543;37.950;-122.338;2023-07-08T06:30:09;101027.63;;;12.62;93.39
70011;BME280;59543;37.950;-122.338;2023-07-08T06:32:35;101026.25;;;12.57;93.99
70011;BME280;59543;37.950;-122.338;2023-07-08T06:35:01;101031.03;;;12.64;93.91
70011;BME280;59543;37.950;-122.338;2023-07-08T06:37:28;101030.34;;;12.62;93.50
70011;BME280;59543;37.950;-122.338;2023-07-08T06:39:54;101031.94;;;12.54;93.92
70011;BME280;59543;37.950;-122.338;2023-07-08T06:42:20;101025.38;;;12.57;93.92
70011;BME280;59543;37.950;-122.338;2023-07-08T06:44:46;101038.88;;;12.57;93.57
70011;BME280;59543;37.950;-122.338;2023-07-08T06:47:20;101031.56;;;12.49;93.84
70011;BME280;59543;37.950;-122.338;2023-07-08T06:49:47;101039.34;;;12.52;93.96
70011;BME280;59543;37.950;-122.338;2023-07-08T06:52:14;101047.59;;;12.51;94.12
70011;BME280;59543;37.950;-122.338;2023-07-08T06:54:41;101043.59;;;12.55;93.77
70011;BME280;59543;37.950;-122.338;2023-07-08T06:57:07;101053.91;;;12.59;93.33
70011;BME280;59543;37.950;-122.338;2023-07-08T06:59:34;101051.22;;;12.59;93.19
70011;BME280;59543;37.950;-122.338;2023-07-08T07:02:00;101053.47;;;12.46;94.23
70011;BME280;59543;37.950;-122.338;2023-07-08T07:04:28;101050.28;;;12.51;93.71
70011;BME280;59543;37.950;-122.338;2023-07-08T07:06:58;101055.16;;;12.47;93.85
70011;BME280;59543;37.950;-122.338;2023-07-08T07:09:24;101052.22;;;12.58;93.43
70011;BME280;59543;37.950;-122.338;2023-07-08T07:11:50;101062.63;;;12.53;93.15
70011;BME280;59543;37.950;-122.338;2023-07-08T07:14:16;101060.09;;;12.52;93.11
70011;BME280;59543;37.950;-122.338;2023-07-08T07:16:42;101062.41;;;12.65;92.38
70011;BME280;59543;37.950;-122.338;2023-07-08T07:19:09;101071.50;;;12.64;92.34
70011;BME280;59543;37.950;-122.338;2023-07-08T07:21:35;101068.81;;;12.46;93.36
70011;BME280;59543;37.950;-122.338;2023-07-08T07:24:01;101065.56;;;12.60;92.62
70011;BME280;59543;37.950;-122.338;2023-07-08T07:26:27;101071.13;;;12.58;92.64
70011;BME280;59543;37.950;-122.338;2023-07-08T07:28:53;101071.50;;;12.46;93.15
70011;BME280;59543;37.950;-122.338;2023-07-08T07:31:20;101066.34;;;12.52;92.90
70011;BME280;59543;37.950;-122.338;2023-07-08T07:33:46;101075.09;;;12.54;92.62
70011;BME280;59543;37.950;-122.338;2023-07-08T07:36:12;101068.19;;;12.52;92.66
70011;BME280;59543;37.950;-122.338;2023-07-08T07:38:38;101058.25;;;12.52;92.80
70011;BME280;59543;37.950;-122.338;2023-07-08T07:41:04;101057.84;;;12.47;92.65
70011;BME280;59543;37.950;-122.338;2023-07-08T07:43:33;101062.22;;;12.48;92.58
70011;BME280;59543;37.950;-122.338;2023-07-08T07:45:59;101057.22;;;12.35;93.59
70011;BME280;59543;37.950;-122.338;2023-07-08T07:48:26;101055.97;;;12.30;93.86
70011;BME280;59543;37.950;-122.338;2023-07-08T07:50:52;101045.06;;;12.31;93.92
70011;BME280;59543;37.950;-122.338;2023-07-08T07:53:18;101061.38;;;12.30;94.24
70011;BME280;59543;37.950;-122.338;2023-07-08T07:55:44;101068.09;;;12.26;94.63
70011;BME280;59543;37.950;-122.338;2023-07-08T07:58:10;101061.84;;;12.25;94.71
70011;BME280;59543;37.950;-122.338;2023-07-08T08:00:39;101063.41;;;12.28;94.40
70011;BME280;59543;37.950;-122.338;2023-07-08T08:03:06;101049.91;;;12.28;94.52
70011;BME280;59543;37.950;-122.338;2023-07-08T08:05:32;101047.22;;;12.28;94.34
70011;BME280;59543;37.950;-122.338;2023-07-08T08:07:58;101048.38;;;12.25;94.44
70011;BME280;59543;37.950;-122.338;2023-07-08T08:10:25;101045.50;;;12.27;94.31
70011;BME280;59543;37.950;-122.338;2023-07-08T08:12:51;101043.28;;;12.22;94.64
70011;BME280;59543;37.950;-122.338;2023-07-08T08:15:19;101047.72;;;12.13;95.32
70011;BME280;59543;37.950;-122.338;2023-07-08T08:17:45;101052.63;;;12.00;96.10
70011;BME280;59543;37.950;-122.338;2023-07-08T08:20:14;101050.97;;;12.17;95.55
70011;BME280;59543;37.950;-122.338;2023-07-08T08:22:40;101060.19;;;12.15;95.61
70011;BME280;59543;37.950;-122.338;2023-07-08T08:25:07;101062.34;;;12.11;95.30
70011;BME280;59543;37.950;-122.338;2023-07-08T08:27:33;101058.81;;;12.10;95.41
70011;BME280;59543;37.950;-122.338;2023-07-08T08:29:59;101057.81;;;12.11;95.56
70011;BME280;59543;37.950;-122.338;2023-07-08T08:32:26;101058.41;;;12.05;95.80
70011;BME280;59543;37.950;-122.338;2023-07-08T08:34:52;101064.63;;;12.16;94.97
70011;BME280;59543;37.950;-122.338;2023-07-08T08:37:18;101058.28;;;12.07;95.31
70011;BME280;59543;37.950;-122.338;2023-07-08T08:39:44;101062.34;;;12.11;95.08
70011;BME280;59543;37.950;-122.338;2023-07-08T08:42:30;101070.31;;;12.12;95.25
70011;BME280;59543;37.950;-122.338;2023-07-08T08:45:00;101071.91;;;12.05;95.35
70011;BME280;59543;37.950;-122.338;2023-07-08T08:47:37;101063.97;;;12.04;95.30
70011;BME280;59543;37.950;-122.338;2023-07-08T08:52:42;101072.25;;;11.93;96.18
70011;BME280;59543;37.950;-122.338;2023-07-08T08:55:13;101063.19;;;11.84;96.33
70011;BME280;59543;37.950;-122.338;2023-07-08T09:00:53;101064.88;;;11.95;96.12
70011;BME280;59543;37.950;-122.338;2023-07-08T09:03:55;101064.72;;;11.96;96.09
70011;BME280;59543;37.950;-122.338;2023-07-08T09:06:48;101057.78;;;11.84;96.62
70011;BME280;59543;37.950;-122.338;2023-07-08T09:09:20;101059.78;;;11.92;96.29
70011;BME280;59543;37.950;-122.338;2023-07-08T09:12:14;101056.28;;;11.72;97.30
70011;BME280;59543;37.950;-122.338;2023-07-08T09:14:43;101053.25;;;11.84;97.12
70011;BME280;59543;37.950;-122.338;2023-07-08T09:17:29;101047.91;;;11.75;97.66
70011;BME280;59543;37.950;-122.338;2023-07-08T09:23:02;101046.59;;;11.79;97.38
70011;BME280;59543;37.950;-122.338;2023-07-08T09:25:39;101048.44;;;11.78;97.20
70011;BME280;59543;37.950;-122.338;2023-07-08T09:28:09;101048.16;;;11.81;97.29
70011;BME280;59543;37.950;-122.338;2023-07-08T09:30:35;101049.59;;;11.85;97.05
70011;BME280;59543;37.950;-122.338;2023-07-08T09:33:06;101047.19;;;11.82;96.69
70011;BME280;59543;37.950;-122.338;2023-07-08T09:35:47;101051.16;;;11.78;97.35
70011;BME280;59543;37.950;-122.338;2023-07-08T09:38:16;101044.75;;;11.89;96.66
70011;BME280;59543;37.950;-122.338;2023-07-08T09:41:01;101044.63;;;11.81;97.41
70011;BME280;59543;37.950;-122.338;2023-07-08T09:43:34;101038.50;;;11.79;97.47
70011;BME280;59543;37.950;-122.338;2023-07-08T09:46:04;101042.34;;;11.76;97.23
70011;BME280;59543;37.950;-122.338;2023-07-08T09:48:35;101043.66;;;11.72;97.24
70011;BME280;59543;37.950;-122.338;2023-07-08T09:51:02;101051.31;;;11.77;97.23
70011;BME280;59543;37.950;-122.338;2023-07-08T09:53:29;101048.22;;;11.72;97.38
70011;BME280;59543;37.950;-122.338;2023-07-08T09:55:59;101045.41;;;11.63;98.57
70011;BME280;59543;37.950;-122.338;2023-07-08T09:58:31;101041.16;;;11.61;98.22
70011;BME280;59543;37.950;-122.338;2023-07-08T10:01:08;101037.19;;;11.65;97.61
70011;BME280;59543;37.950;-122.338;2023-07-08T10:03:35;101034.78;;;11.62;97.52
70011;BME280;59543;37.950;-122.338;2023-07-08T10:06:22;101036.88;;;11.68;97.58
70011;BME280;59543;37.950;-122.338;2023-07-08T10:08:48;101041.50;;;11.76;97.27
70011;BME280;59543;37.950;-122.338;2023-07-08T10:13:49;101035.03;;;11.68;97.56
70011;BME280;59543;37.950;-122.338;2023-07-08T10:16:23;101035.03;;;11.68;97.28
70011;BME280;59543;37.950;-122.338;2023-07-08T10:18:50;101024.25;;;11.68;96.49
70011;BME280;59543;37.950;-122.338;2023-07-08T10:21:36;101030.47;;;11.69;96.47
70011;BME280;59543;37.950;-122.338;2023-07-08T10:32:40;101034.25;;;11.58;96.40
70011;BME280;59543;37.950;-122.338;2023-07-08T10:35:20;101041.16;;;11.61;96.18
70011;BME280;59543;37.950;-122.338;2023-07-08T10:45:34;101054.84;;;11.50;97.06
70011;BME280;59543;37.950;-122.338;2023-07-08T10:50:51;101047.28;;;11.53;97.23
70011;BME280;59543;37.950;-122.338;2023-07-08T11:06:58;101064.00;;;11.57;97.12
70011;BME280;59543;37.950;-122.338;2023-07-08T11:09:40;101071.84;;;11.50;98.46
70011;BME280;59543;37.950;-122.338;2023-07-08T11:12:42;101072.94;;;11.57;98.81
70011;BME280;59543;37.950;-122.338;2023-07-08T11:15:20;101079.75;;;11.61;97.89
70011;BME280;59543;37.950;-122.338;2023-07-08T11:18:14;101082.56;;;11.60;97.78
70011;BME280;59543;37.950;-122.338;2023-07-08T11:25:58;101079.66;;;11.43;98.62
70011;BME280;59543;37.950;-122.338;2023-07-08T11:28:28;101074.97;;;11.45;98.34
70011;BME280;59543;37.950;-122.338;2023-07-08T11:30:57;101080.91;;;11.49;98.38
70011;BME280;59543;37.950;-122.338;2023-07-08T11:33:27;101074.13;;;11.45;97.61
70011;BME280;59543;37.950;-122.338;2023-07-08T11:35:56;101080.34;;;11.45;97.68
70011;BME280;59543;37.950;-122.338;2023-07-08T11:38:25;101086.03;;;11.52;97.19
70011;BME280;59543;37.950;-122.338;2023-07-08T11:40:57;101092.13;;;11.44;97.04
70011;BME280;59543;37.950;-122.338;2023-07-08T11:43:47;101088.97;;;11.49;96.43
70011;BME280;59543;37.950;-122.338;2023-07-08T11:46:25;101082.75;;;11.49;94.80
70011;BME280;59543;37.950;-122.338;2023-07-08T11:48:56;101089.00;;;11.39;94.68
70011;BME280;59543;37.950;-122.338;2023-07-08T11:51:31;101091.88;;;11.38;94.69
70011;BME280;59543;37.950;-122.338;2023-07-08T11:59:46;101113.50;;;11.56;93.87
70011;BME280;59543;37.950;-122.338;2023-07-08T12:02:15;101114.63;;;11.63;92.91
70011;BME280;59543;37.950;-122.338;2023-07-08T12:04:58;101121.84;;;11.62;93.13
70011;BME280;59543;37.950;-122.338;2023-07-08T12:07:45;101123.53;;;11.63;93.12
70011;BME280;59543;37.950;-122.338;2023-07-08T12:10:17;101118.16;;;11.63;93.38
70011;BME280;59543;37.950;-122.338;2023-07-08T12:12:45;101125.44;;;11.53;93.73
70011;BME280;59543;37.950;-122.338;2023-07-08T12:15:21;101123.88;;;11.51;93.73
70011;BME280;59543;37.950;-122.338;2023-07-08T12:17:53;101125.47;;;11.43;93.95
70011;BME280;59543;37.950;-122.338;2023-07-08T12:20:33;101128.72;;;11.37;93.46
70011;BME280;59543;37.950;-122.338;2023-07-08T12:23:00;101125.44;;;11.34;93.43
70011;BME280;59543;37.950;-122.338;2023-07-08T12:25:32;101125.75;;;11.31;93.66
70011;BME280;59543;37.950;-122.338;2023-07-08T12:28:02;101120.78;;;11.36;93.63
70011;BME280;59543;37.950;-122.338;2023-07-08T12:30:31;101122.91;;;11.32;94.14
70011;BME280;59543;37.950;-122.338;2023-07-08T12:32:59;101129.44;;;11.30;93.78
70011;BME280;59543;37.950;-122.338;2023-07-08T12:35:32;101126.03;;;11.28;94.10
70011;BME280;59543;37.950;-122.338;2023-07-08T12:38:02;101125.75;;;11.21;94.02
70011;BME280;59543;37.950;-122.338;2023-07-08T12:40:29;101128.75;;;11.18;94.04
70011;BME280;59543;37.950;-122.338;2023-07-08T12:42:57;101124.19;;;11.18;93.87
70011;BME280;59543;37.950;-122.338;2023-07-08T12:45:28;101127.34;;;11.14;93.41
70011;BME280;59543;37.950;-122.338;2023-07-08T12:47:55;101130.75;;;10.96;93.81
70011;BME280;59543;37.950;-122.338;2023-07-08T12:50:22;101130.47;;;10.90;94.15
70011;BME280;59543;37.950;-122.338;2023-07-08T12:52:48;101126.63;;;10.83;94.14
70011;BME280;59543;37.950;-122.338;2023-07-08T12:55:15;101131.88;;;10.74;95.55
70011;BME280;59543;37.950;-122.338;2023-07-08T12:57:45;101123.66;;;10.76;94.91
70011;BME280;59543;37.950;-122.338;2023-07-08T13:00:28;101136.25;;;10.75;94.57
70011;BME280;59543;37.950;-122.338;2023-07-08T13:03:05;101129.19;;;10.74;95.17
70011;BME280;59543;37.950;-122.338;2023-07-08T13:05:33;101134.13;;;10.60;96.87
70011;BME280;59543;37.950;-122.338;2023-07-08T13:08:00;101129.03;;;10.86;96.20
70011;BME280;59543;37.950;-122.338;2023-07-08T13:10:28;101131.88;;;10.84;95.59
70011;BME280;59543;37.950;-122.338;2023-07-08T13:13:02;101129.63;;;10.89;95.46
70011;BME280;59543;37.950;-122.338;2023-07-08T13:15:40;101133.44;;;10.96;96.72
70011;BME280;59543;37.950;-122.338;2023-07-08T13:18:19;101136.69;;;11.00;96.79
70011;BME280;59543;37.950;-122.338;2023-07-08T13:20:50;101139.81;;;11.05;96.74
70011;BME280;59543;37.950;-122.338;2023-07-08T13:23:17;101139.66;;;10.97;96.70
70011;BME280;59543;37.950;-122.338;2023-07-08T13:25:48;101139.38;;;11.00;97.15
70011;BME280;59543;37.950;-122.338;2023-07-08T13:28:22;101144.63;;;11.02;96.75
70011;BME280;59543;37.950;-122.338;2023-07-08T13:30:55;101142.94;;;11.10;97.32
70011;BME280;59543;37.950;-122.338;2023-07-08T13:33:23;101147.59;;;11.18;97.88